Grand Chenier, LA (70643)

1:32 PM CDT on May 25, 2015 (GMT -0500)
Grand View Lodge | | Change Station
CLOSE
Current Station
Personal Weather Station
Location: Creole, LA
Elevation: 16 ft
Nearby Weather Stations

Elev 16 ft 29.84 °N, 93.00 °W | Updated 11 seconds ago

Partly Cloudy
Partly Cloudy
83.8 °F
Feels Like 93 °F
N
13.0
Wind Variable Wind from ESE
Gusts 17.0 mph

Today
High -- | Low -- °F
--% Chance of Precip.
Yesterday
High -- | Low -- °F
Precip. -- in
6:13 AM 8:03 PM
Waxing Crescent, 50% visible
Pressure 30.01 in
Visibility 10.0 miles
Clouds Scattered Clouds 3400 ft
Scattered Clouds 5000 ft
Scattered Clouds 11000 ft
Heat Index 93 °F
Dew Point 77 °F
Humidity 79%
Rainfall 0.00 in
Snow Depth Not available.
UV 10 out of 12
Pollen 3.20 out of 12
Air Quality Not available.
Flu Activity Sporadic
METAR K3R7 251815Z AUTO 17013G17KT 10SM SCT034 SCT050 SCT110 31/23 A3001 RMK AO2 T03050227

More Conditions Fewer Conditions

Pressure 30.01 in
Visibility 10.0 miles
Clouds Scattered Clouds 3400 ft
Scattered Clouds 5000 ft
Scattered Clouds 11000 ft
Heat Index 93 °F
Dew Point 77 °F
Humidity 79%
Rainfall 0.00 in
Snow Depth Not available.
UV 10 out of 12
Pollen 3.20 out of 12
Air Quality Not available.
Flu Activity Sporadic
METAR K3R7 251815Z AUTO 17013G17KT 10SM SCT034 SCT050 SCT110 31/23 A3001 RMK AO2 T03050227

More Conditions Fewer Conditions

10-Day Weather Forecast

Almanac

Astronomy

May. 25, 2015 Rise Set
Actual Time
Civil Twilight
Nautical Twilight
Astronomical Twilight
Moon
Length of Visible Light
Length of Day
Tomorrow will be .
, % of the Moon is Illuminated

Today's Extremes

State Highs State Lows

Community

WunderPhotos

Upload Photos

1,824,078 photos uploaded!

WunderBlogs® & News

Nearby

Air Quality

  Air Quality AQ Index Pollutant
Not available.

Snow Depth

Station Depth Elevation

Earthquake Activity

City Distance Mag. Time & Date
Minimum magnitude displayed is 2.5.

Coastal Water Temperatures

Place Temperature

Stations

Nearby Weather Stations

Station Location Temp. Windchill Dew Point Humidity Wind Precip. Elev Updated Type